Time;durP1;ratioP1;P1;durP2;ratioP2;P2;SDS_P1;SDS_P2;PMS_P1;PMS_P2;Temp;Humidity;BMP_temperature;BMP_pressure;BME280_temperature;BME280_humidity;BME280_pressure;Samples;Min_cycle;Max_cycle;Signal;HPM_P1;HPM_P2
2022/03/08 00:01:33;;;;;;;16.63;9.93;;;;;;;;;;5057835;28;20508;-87
2022/03/08 00:03:59;;;;;;;17.10;9.70;;;;;;;;;;5076041;28;20210;-86
2022/03/08 00:06:26;;;;;;;16.47;9.93;;;;;;;;;;5057677;28;20273;-86
2022/03/08 00:08:52;;;;;;;17.90;9.70;;;;;;;;;;5076342;28;20171;-86
2022/03/08 00:11:18;;;;;;;15.30;10.13;;;;;;;;;;5076060;28;20183;-87
2022/03/08 00:13:44;;;;;;;23.03;9.77;;;;;;;;;;5059678;28;20183;-86
2022/03/08 00:16:11;;;;;;;19.33;8.63;;;;;;;;;;5078548;28;20178;-87
2022/03/08 00:18:38;;;;;;;16.13;8.33;;;;;;;;;;5057998;28;20529;-86
2022/03/08 00:21:05;;;;;;;16.20;9.63;;;0.00;99.90;;;;;;5041240;28;20248;-86
2022/03/08 00:23:32;;;;;;;14.70;9.10;;;;;;;;;;5057892;28;20644;-86
2022/03/08 00:26:00;;;;;;;15.07;9.33;;;;;;;;;;5076057;28;20254;-86
2022/03/08 00:28:26;;;;;;;17.10;8.97;;;;;;;;;;5075546;28;20175;-86
2022/03/08 00:30:52;;;;;;;15.20;8.17;;;;;;;;;;5075397;28;20257;-86
2022/03/08 00:33:19;;;;;;;17.93;8.80;;;;;;;;;;5075329;28;20177;-86
2022/03/08 00:35:45;;;;;;;14.83;8.67;;;;;;;;;;5041411;28;20370;-86
2022/03/08 00:38:11;;;;;;;21.90;9.20;;;;;;;;;;5040777;28;20239;-86
2022/03/08 00:40:37;;;;;;;23.03;10.63;;;;;;;;;;5075214;28;20256;-86
2022/03/08 00:43:04;;;;;;;27.80;10.00;;;-0.40;99.90;;;;;;5075210;28;20298;-85
2022/03/08 00:45:30;;;;;;;20.47;10.57;;;;;;;;;;5058715;28;20238;-85
2022/03/08 00:47:56;;;;;;;24.60;9.90;;;;;;;;;;5062090;28;20181;-86
2022/03/08 00:50:25;;;;;;;24.63;9.87;;;-0.50;99.90;;;;;;5075116;28;20655;-86
2022/03/08 00:52:52;;;;;;;19.03;10.13;;;-0.60;99.90;;;;;;5075147;28;20183;-86
2022/03/08 00:55:19;;;;;;;28.00;10.00;;;-0.60;99.90;;;;;;5091804;28;20567;-87
2022/03/08 00:57:46;;;;;;;21.77;10.03;;;;;;;;;;5075821;28;20259;-88
2022/03/08 01:00:14;;;;;;;24.67;10.00;;;-0.20;99.90;;;;;;5074371;28;20179;-86
2022/03/08 01:02:40;;;;;;;17.07;9.50;;;;;;;;;;5056774;28;20244;-87
2022/03/08 01:05:06;;;;;;;23.20;10.10;;;-0.60;99.90;;;;;;5075721;28;20179;-86
2022/03/08 01:07:32;;;;;;;19.83;9.43;;;;;;;;;;5075552;28;20184;-86
2022/03/08 01:09:58;;;;;;;19.57;9.43;;;;;;;;;;5056936;28;20182;-86
2022/03/08 01:12:25;;;;;;;18.67;8.50;;;-0.70;99.90;;;;;;5057321;28;20190;-86
2022/03/08 01:14:51;;;;;;;20.80;10.03;;;-0.70;99.90;;;;;;5056822;28;20260;-87
2022/03/08 01:17:17;;;;;;;19.37;9.97;;;;;;;;;;5056293;28;20551;-87
2022/03/08 01:19:43;;;;;;;21.47;9.83;;;;;;;;;;5056378;28;20615;-87
2022/03/08 01:22:11;;;;;;;20.30;8.93;;;-0.80;99.90;;;;;;5056447;28;20533;-86
2022/03/08 01:24:37;;;;;;;18.23;9.33;;;;;;;;;;5074682;28;20184;-87
2022/03/08 01:27:03;;;;;;;16.17;9.60;;;-0.80;99.90;;;;;;5056307;28;20183;-86
2022/03/08 01:29:29;;;;;;;16.80;9.47;;;;;;;;;;5056330;28;20549;-86
2022/03/08 01:31:55;;;;;;;15.10;7.97;;;;;;;;;;5039349;28;20245;-87
2022/03/08 01:34:22;;;;;;;20.73;8.63;;;-0.90;99.90;;;;;;5074049;28;20183;-87
2022/03/08 01:36:48;;;;;;;13.87;7.97;;;;;;;;;;5056227;28;20324;-87
2022/03/08 01:39:14;;;;;;;16.33;8.47;;;;;;;;;;5056072;28;20252;-87
2022/03/08 01:41:40;;;;;;;12.57;8.97;;;;;;;;;;5073861;28;20197;-86
2022/03/08 01:44:09;;;;;;;18.17;9.23;;;-0.90;99.90;;;;;;5056145;28;20237;-86
2022/03/08 01:46:38;;;;;;;15.60;9.23;;;;;;;;;;5074079;28;20175;-86
2022/03/08 01:49:05;;;;;;;18.07;9.43;;;-1.00;99.90;;;;;;5074193;28;20256;-87
2022/03/08 01:51:32;;;;;;;18.70;9.50;;;-1.00;99.90;;;;;;5055850;28;20190;-86
2022/03/08 01:53:58;;;;;;;18.20;8.67;;;;;;;;;;5023288;28;20217;-87
2022/03/08 01:56:24;;;;;;;20.63;10.73;;;;;;;;;;5039252;28;20183;-87
2022/03/08 01:58:50;;;;;;;16.93;9.27;;;;;;;;;;5055990;28;20186;-86
2022/03/08 02:01:16;;;;;;;19.17;9.77;;;-1.10;99.90;;;;;;5039769;28;20219;-87
2022/03/08 02:03:41;;;;;;;16.37;8.97;;;-1.10;99.90;;;;;;5055492;28;20721;-87
2022/03/08 02:06:07;;;;;;;18.90;10.37;;;;;;;;;;5055985;28;20199;-86
2022/03/08 02:08:33;;;;;;;14.80;8.53;;;;;;;;;;5055615;28;20182;-86
2022/03/08 02:11:00;;;;;;;20.77;10.40;;;;;;;;;;5073078;28;20185;-87
2022/03/08 02:13:26;;;;;;;27.23;10.63;;;-1.10;99.90;;;;;;5039113;28;20190;-86
2022/03/08 02:15:52;;;;;;;19.20;9.97;;;;;;;;;;5073288;28;20627;-86
2022/03/08 02:18:18;;;;;;;20.67;9.70;;;;;;;;;;5073547;28;20229;-87
2022/03/08 02:20:45;;;;;;;18.23;10.73;;;;;;;;;;5039279;28;20225;-88
2022/03/08 02:23:11;;;;;;;16.93;9.37;;;;;;;;;;5055650;28;20214;-86
2022/03/08 02:25:37;;;;;;;21.83;10.30;;;;;;;;;;5055732;28;20699;-86
2022/03/08 02:28:03;;;;;;;16.73;9.40;;;;;;;;;;5055629;28;20190;-86
2022/03/08 02:30:29;;;;;;;18.10;10.03;;;;;;;;;;5073607;28;20265;-87
2022/03/08 02:32:55;;;;;;;16.20;8.60;;;;;;;;;;5055860;28;20607;-86
2022/03/08 02:35:24;;;;;;;18.57;8.80;;;-1.20;99.90;;;;;;5073771;28;20185;-86
2022/03/08 02:37:52;;;;;;;18.30;9.43;;;-1.20;99.90;;;;;;5055393;28;20184;-87
2022/03/08 02:40:21;;;;;;;16.13;8.60;;;-1.20;99.90;;;;;;5055710;28;20174;-87
2022/03/08 02:42:47;;;;;;;13.40;8.30;;;;;;;;;;5073487;28;20508;-87
2022/03/08 02:45:14;;;;;;;16.63;8.90;;;;;;;;;;5055886;28;20179;-86
2022/03/08 02:47:40;;;;;;;16.50;9.23;;;;;;;;;;5083258;28;20687;-87
2022/03/08 02:50:09;;;;;;;21.67;11.43;;;-1.40;99.90;;;;;;5039592;28;20341;-87
2022/03/08 02:52:36;;;;;;;18.67;9.57;;;-1.30;99.90;;;;;;5073552;28;20211;-88
2022/03/08 02:55:03;;;;;;;18.63;9.57;;;-1.30;99.90;;;;;;5039097;28;20207;-87
2022/03/08 02:57:29;;;;;;;19.47;9.80;;;;;;;;;;5054663;28;20180;-89
2022/03/08 02:59:55;;;;;;;22.53;9.93;;;;;;;;;;5073494;28;20184;-88
2022/03/08 03:02:21;;;;;;;21.37;10.37;;;;;;;;;;5054895;28;20224;-87
2022/03/08 03:04:46;;;;;;;18.47;9.03;;;;;;;;;;5055177;28;20185;-88
2022/03/08 03:07:14;;;;;;;18.20;8.30;;;-1.50;99.90;;;;;;5038595;28;20624;-87
2022/03/08 03:09:40;;;;;;;23.53;10.10;;;;;;;;;;5055266;28;20240;-87
2022/03/08 03:12:06;;;;;;;34.23;11.80;;;-1.50;99.90;;;;;;5055243;28;20183;-87
2022/03/08 03:14:32;;;;;;;26.57;10.30;;;;;;;;;;5054532;28;20218;-87
2022/03/08 03:16:58;;;;;;;26.80;10.30;;;;;;;;;;5055153;28;20189;-87
2022/03/08 03:19:24;;;;;;;24.27;9.87;;;;;;;;;;5055121;28;20183;-86
2022/03/08 03:21:50;;;;;;;27.33;11.53;;;;;;;;;;5038600;28;20188;-86
2022/03/08 03:24:16;;;;;;;23.73;10.30;;;;;;;;;;5058142;28;20204;-87
2022/03/08 03:26:43;;;;;;;19.17;9.13;;;;;;;;;;5058321;28;20183;-87
2022/03/08 03:29:09;;;;;;;18.63;9.67;;;;;;;;;;5042168;28;20185;-87
2022/03/08 03:31:35;;;;;;;25.07;9.70;;;;;;;;;;5075920;28;20702;-87
2022/03/08 03:34:01;;;;;;;20.73;8.00;;;;;;;;;;5076357;28;20189;-87
2022/03/08 03:36:27;;;;;;;21.13;8.20;;;;;;;;;;5073444;28;20570;-87
2022/03/08 03:38:53;;;;;;;23.27;9.17;;;;;;;;;;5073968;28;20205;-87
2022/03/08 03:41:19;;;;;;;20.63;8.63;;;;;;;;;;5100008;28;20166;-86
2022/03/08 03:43:45;;;;;;;16.30;8.60;;;;;;;;;;5071012;28;20218;-87
2022/03/08 03:46:11;;;;;;;22.63;10.23;;;;;;;;;;5059582;28;20182;-86
2022/03/08 03:48:38;;;;;;;16.30;8.87;;;;;;;;;;5058437;28;20189;-87
2022/03/08 03:51:04;;;;;;;17.30;9.03;;;;;;;;;;5042280;28;20276;-87
2022/03/08 03:53:30;;;;;;;20.13;10.27;;;;;;;;;;5058667;28;20490;-87
2022/03/08 03:55:56;;;;;;;15.00;9.27;;;;;;;;;;5041921;28;20600;-86
2022/03/08 03:58:22;;;;;;;26.60;10.50;;;;;;;;;;5076332;28;20258;-87
2022/03/08 04:00:48;;;;;;;19.07;9.20;;;;;;;;;;5076161;28;20219;-89
2022/03/08 04:03:15;;;;;;;24.33;9.83;;;;;;;;;;5058277;28;20213;-89
2022/03/08 04:05:41;;;;;;;23.77;10.93;;;;;;;;;;5057856;28;20183;-88
2022/03/08 04:08:07;;;;;;;19.70;10.23;;;;;;;;;;5058128;28;20540;-88
2022/03/08 04:10:33;;;;;;;15.90;9.57;;;;;;;;;;5075948;28;20213;-87
2022/03/08 04:12:59;;;;;;;19.43;10.27;;;;;;;;;;5057638;28;20241;-87
2022/03/08 04:15:26;;;;;;;25.23;9.07;;;;;;;;;;5058362;28;20188;-87
2022/03/08 04:17:52;;;;;;;20.93;9.63;;;;;;;;;;5057679;28;20755;-87
2022/03/08 04:20:18;;;;;;;23.03;9.50;;;;;;;;;;5075695;28;20232;-86
2022/03/08 04:22:45;;;;;;;20.27;9.60;;;;;;;;;;5057324;28;20316;-86
2022/03/08 04:25:11;;;;;;;22.47;10.30;;;;;;;;;;5075553;28;20179;-87
2022/03/08 04:27:37;;;;;;;19.57;11.10;;;;;;;;;;5075357;28;20184;-87
2022/03/08 04:30:05;;;;;;;16.40;8.67;;;-2.10;99.90;;;;;;5057229;28;20192;-87
2022/03/08 04:32:31;;;;;;;13.33;8.20;;;;;;;;;;5075439;28;20699;-87
2022/03/08 04:34:57;;;;;;;13.80;7.87;;;;;;;;;;5074306;28;20272;-88
2022/03/08 04:37:23;;;;;;;17.20;8.47;;;;;;;;;;5075414;28;20640;-87
2022/03/08 04:39:50;;;;;;;15.30;8.27;;;;;;;;;;5057215;28;20181;-87
2022/03/08 04:42:16;;;;;;;19.57;9.10;;;;;;;;;;5057008;28;20189;-87
2022/03/08 04:44:42;;;;;;;20.97;9.80;;;;;;;;;;5057163;28;20639;-88
2022/03/08 04:47:08;;;;;;;22.60;8.67;;;;;;;;;;5043709;28;20188;-86
2022/03/08 04:49:34;;;;;;;19.60;9.67;;;;;;;;;;5039830;28;20182;-87
2022/03/08 04:52:00;;;;;;;17.53;7.83;;;;;;;;;;5067631;28;20186;-87
2022/03/08 04:54:26;;;;;;;16.97;9.10;;;;;;;;;;5056544;28;20271;-88
2022/03/08 04:56:52;;;;;;;18.33;8.80;;;;;;;;;;5056568;28;20192;-87
2022/03/08 04:59:18;;;;;;;19.50;9.83;;;;;;;;;;5056508;28;20190;-87
2022/03/08 05:01:44;;;;;;;16.97;8.57;;;;;;;;;;5071626;28;20186;-88
2022/03/08 05:04:10;;;;;;;13.60;7.57;;;;;;;;;;5056436;28;20571;-87
2022/03/08 05:06:36;;;;;;;16.80;7.13;;;;;;;;;;5056540;28;20184;-86
2022/03/08 05:09:03;;;;;;;13.43;7.07;;;;;;;;;;5056204;28;20182;-86
2022/03/08 05:11:29;;;;;;;17.80;7.80;;;;;;;;;;5056553;28;20587;-86
2022/03/08 05:13:55;;;;;;;16.87;7.60;;;;;;;;;;5056385;28;20186;-87
2022/03/08 05:16:21;;;;;;;13.03;7.00;;;;;;;;;;5056202;28;20206;-87
2022/03/08 05:18:47;;;;;;;10.00;6.43;;;;;;;;;;5073861;28;20637;-87
2022/03/08 05:21:13;;;;;;;15.73;7.27;;;;;;;;;;5056327;28;20270;-87
2022/03/08 05:23:39;;;;;;;12.90;7.60;;;;;;;;;;5073191;28;20297;-87
2022/03/08 05:26:05;;;;;;;13.27;7.23;;;;;;;;;;5073509;28;20662;-87
2022/03/08 05:28:32;;;;;;;20.23;8.73;;;-1.90;99.90;;;;;;5074154;28;20563;-87
2022/03/08 05:30:58;;;;;;;17.33;8.13;;;;;;;;;;5056156;28;20233;-87
2022/03/08 05:33:24;;;;;;;17.40;8.83;;;;;;;;;;5074116;28;20244;-86
2022/03/08 05:35:50;;;;;;;20.60;8.93;;;;;;;;;;5074198;28;20202;-87
2022/03/08 05:38:16;;;;;;;17.50;9.30;;;;;;;;;;5040297;28;20577;-88
2022/03/08 05:40:43;;;;;;;20.43;9.90;;;;;;;;;;5056570;28;20206;-86
2022/03/08 05:43:09;;;;;;;14.70;8.47;;;;;;;;;;5073998;28;20200;-87
2022/03/08 05:45:35;;;;;;;16.80;8.57;;;;;;;;;;5055360;28;20178;-86
2022/03/08 05:48:01;;;;;;;18.53;8.73;;;;;;;;;;5073276;28;20224;-87
2022/03/08 05:50:27;;;;;;;18.03;9.13;;;;;;;;;;5054948;28;20279;-87
2022/03/08 05:52:53;;;;;;;22.63;9.17;;;;;;;;;;5052758;28;20237;-87
2022/03/08 05:55:19;;;;;;;17.20;9.03;;;-0.80;99.90;;;;;;5027920;28;20662;-88
2022/03/08 05:57:45;;;;;;;16.37;9.07;;;;;;;;;;5060114;28;20280;-87
2022/03/08 06:00:11;;;;;;;19.37;8.00;;;-1.40;99.90;;;;;;5039631;28;20194;-88
2022/03/08 06:02:37;;;;;;;17.03;9.03;;;;;;;;;;5059520;28;20237;-86
2022/03/08 06:05:04;;;;;;;17.13;8.87;;;-1.30;99.90;;;;;;5045478;28;20282;-85
2022/03/08 06:07:30;;;;;;;18.03;8.10;;;;;;;;;;5065013;28;20185;-86
2022/03/08 06:09:56;;;;;;;15.70;8.37;;;;;;;;;;5066780;28;20187;-86
2022/03/08 06:12:22;;;;;;;18.80;9.80;;;;;;;;;;5043698;28;20625;-90
2022/03/08 06:14:48;;;;;;;19.33;9.27;;;;;;;;;;5070378;28;20179;-87
2022/03/08 06:17:14;;;;;;;21.00;8.43;;;;;;;;;;5081832;28;20195;-86
2022/03/08 06:19:40;;;;;;;18.43;9.53;;;;;;;;;;5054470;28;20201;-86
2022/03/08 06:22:06;;;;;;;17.67;8.47;;;-0.90;99.90;;;;;;5054352;28;20636;-83
2022/03/08 06:24:32;;;;;;;17.57;8.90;;;;;;;;;;5047813;28;20232;-85
2022/03/08 06:26:58;;;;;;;14.53;8.40;;;-0.80;99.90;;;;;;5038287;28;20215;-86
2022/03/08 06:29:24;;;;;;;12.00;7.60;;;;;;;;;;5036282;28;20227;-84
2022/03/08 06:31:50;;;;;;;11.87;5.87;;;;;;;;;;5051948;28;20561;-84
2022/03/08 06:34:16;;;;;;;14.50;7.73;;;;;;;;;;5052634;28;20217;-85
2022/03/08 06:36:42;;;;;;;12.83;6.73;;;;;;;;;;5054442;28;20186;-85
2022/03/08 06:39:08;;;;;;;11.07;6.80;;;;;;;;;;5053629;28;20209;-84
2022/03/08 06:41:34;;;;;;;14.13;7.43;;;;;;;;;;5052592;28;20563;-87
2022/03/08 06:44:01;;;;;;;13.07;6.67;;;;;;;;;;5043880;28;20219;-84
2022/03/08 06:46:27;;;;;;;13.40;6.80;;;;;;;;;;5069339;28;20338;-85
2022/03/08 06:48:56;;;;;;;10.97;6.47;;;;;;;;;;5057893;28;20266;-85
2022/03/08 06:51:22;;;;;;;12.37;6.70;;;;;;;;;;5070226;28;20265;-84
2022/03/08 06:53:48;;;;;;;14.70;7.63;;;;;;;;;;5051762;28;20179;-84
2022/03/08 06:56:14;;;;;;;11.93;7.40;;;;;;;;;;5069326;28;20206;-88
2022/03/08 06:58:40;;;;;;;15.87;6.10;;;;;;;;;;5039063;28;20180;-86
2022/03/08 07:01:09;;;;;;;9.93;6.30;;;;;;;;;;5073842;28;20228;-86
2022/03/08 07:03:35;;;;;;;13.33;6.13;;;;;;;;;;5038752;28;20207;-85
2022/03/08 07:06:01;;;;;;;9.67;6.37;;;;;;;;;;5073344;28;20298;-88
2022/03/08 07:08:27;;;;;;;13.77;6.10;;;;;;;;;;5048389;28;20711;-84
2022/03/08 07:10:53;;;;;;;10.23;5.53;;;;;;;;;;5049738;28;20269;-86
2022/03/08 07:13:19;;;;;;;8.63;4.93;;;;;;;;;;5034845;28;20255;-84
2022/03/08 07:15:45;;;;;;;9.90;5.33;;;;;;;;;;5040949;28;20217;-85
2022/03/08 07:18:11;;;;;;;9.40;5.20;;;;;;;;;;5047590;28;20187;-88
2022/03/08 07:20:37;;;;;;;7.40;4.50;;;;;;;;;;5042610;28;20195;-85
2022/03/08 07:23:03;;;;;;;8.30;3.33;;;0.20;99.90;;;;;;5033187;28;20225;-89
2022/03/08 07:25:29;;;;;;;8.37;4.30;;;;;;;;;;5025650;28;20183;-88
2022/03/08 07:27:55;;;;;;;5.90;3.70;;;;;;;;;;5031122;28;20198;-87
2022/03/08 07:30:21;;;;;;;5.40;3.87;;;;;;;;;;5043795;28;20406;-89
2022/03/08 07:32:49;;;;;;;7.30;4.33;;;;;;;;;;5046551;28;20240;-88
2022/03/08 07:35:15;;;;;;;5.87;4.03;;;;;;;;;;5034538;28;20192;-87
2022/03/08 07:37:41;;;;;;;7.33;4.60;;;;;;;;;;5070611;28;20191;-86
2022/03/08 07:40:08;;;;;;;13.07;4.83;;;-0.20;99.90;;;;;;5037349;28;20197;-87
2022/03/08 07:42:34;;;;;;;11.13;5.50;;;;;;;;;;5045704;28;20231;-85
2022/03/08 07:45:00;;;;;;;8.60;4.73;;;;;;;;;;5070847;28;21030;-85
2022/03/08 07:47:26;;;;;;;9.23;4.80;;;;;;;;;;5071626;28;20194;-89
2022/03/08 07:49:52;;;;;;;11.47;6.27;;;;;;;;;;5047501;28;20197;-85
2022/03/08 07:52:18;;;;;;;10.97;5.47;;;;;;;;;;5053352;28;20284;-89
2022/03/08 07:54:44;;;;;;;11.27;6.67;;;;;;;;;;5036861;28;20549;-85
2022/03/08 07:57:10;;;;;;;13.30;5.73;;;;;;;;;;5044812;28;20191;-86
2022/03/08 07:59:36;;;;;;;12.57;6.13;;;;;;;;;;5070594;28;20182;-83
2022/03/08 08:02:02;;;;;;;12.87;6.17;;;;;;;;;;5034965;28;20711;-83
2022/03/08 08:04:29;;;;;;;9.43;5.70;;;;;;;;;;5053113;28;20211;-83
2022/03/08 08:06:55;;;;;;;14.93;7.37;;;;;;;;;;5075103;28;20185;-84
2022/03/08 08:09:21;;;;;;;11.30;6.17;;;;;;;;;;5074889;28;20189;-83
2022/03/08 08:11:49;;;;;;;12.13;6.37;;;;;;;;;;5057946;28;20190;-83
2022/03/08 08:14:16;;;;;;;8.87;5.17;;;;;;;;;;5075324;28;20263;-83
2022/03/08 08:16:42;;;;;;;10.00;5.47;;;;;;;;;;5075813;28;20181;-83
2022/03/08 08:19:08;;;;;;;9.53;5.33;;;;;;;;;;5057774;28;20236;-84
2022/03/08 08:21:34;;;;;;;16.43;7.47;;;;;;;;;;5075419;28;20177;-84
2022/03/08 08:24:03;;;;;;;13.10;7.53;;;;;;;;;;5075291;28;20282;-85
2022/03/08 08:26:29;;;;;;;12.70;6.83;;;;;;;;;;5058389;28;20616;-84
2022/03/08 08:28:55;;;;;;;12.60;7.17;;;;;;;;;;5075494;28;20193;-84
2022/03/08 08:31:23;;;;;;;47.43;13.30;;;;;;;;;;5075740;28;20257;-84
2022/03/08 08:33:49;;;;;;;38.77;14.77;;;;;;;;;;5057843;28;20251;-84
2022/03/08 08:36:15;;;;;;;12.93;7.67;;;;;;;;;;5057570;28;20197;-84
2022/03/08 08:38:41;;;;;;;16.00;8.93;;;;;;;;;;5075512;28;20187;-83
2022/03/08 08:41:07;;;;;;;23.43;9.53;;;;;;;;;;5075409;28;20261;-85
2022/03/08 08:43:33;;;;;;;12.90;7.17;;;;;;;;;;5057097;28;20310;-85
2022/03/08 08:45:59;;;;;;;19.87;8.90;;;0.30;99.90;;;;;;5057570;28;20292;-84
2022/03/08 08:48:26;;;;;;;10.00;6.30;;;;;;;;;;5062140;28;20596;-82
2022/03/08 08:50:53;;;;;;;9.50;7.03;;;;;;;;;;5076378;28;20186;-83
2022/03/08 08:53:19;;;;;;;16.47;7.40;;;;;;;;;;5057179;28;20189;-84
2022/03/08 08:55:45;;;;;;;8.63;5.20;;;;;;;;;;5057004;28;20198;-83
2022/03/08 08:58:11;;;;;;;20.00;11.77;;;;;;;;;;5056962;28;20175;-83
2022/03/08 09:00:38;;;;;;;47.67;24.17;;;;;;;;;;5075027;28;20202;-83
2022/03/08 09:03:06;;;;;;;35.20;14.57;;;-0.40;99.90;;;;;;5056613;28;20257;-83
2022/03/08 09:05:32;;;;;;;13.40;6.07;;;;;;;;;;5056673;28;20569;-83
2022/03/08 09:07:58;;;;;;;18.87;8.80;;;;;;;;;;5056923;28;20262;-83
2022/03/08 09:10:24;;;;;;;20.30;9.77;;;;;;;;;;5074274;28;20296;-83
2022/03/08 09:12:51;;;;;;;12.73;8.10;;;-0.10;99.90;;;;;;5056397;28;20219;-83
2022/03/08 09:15:18;;;;;;;15.03;8.10;;;0.00;99.90;;;;;;5056840;28;20178;-83
2022/03/08 09:17:45;;;;;;;13.23;9.27;;;;;;;;;;5057217;28;20233;-83
2022/03/08 09:20:11;;;;;;;9.77;6.60;;;-0.30;99.90;;;;;;5074325;28;20186;-82
2022/03/08 09:22:37;;;;;;;15.10;8.17;;;;;;;;;;5074764;28;20233;-84
2022/03/08 09:25:04;;;;;;;11.27;7.53;;;0.40;99.90;;;;;;5074244;28;20175;-83
2022/03/08 09:27:30;;;;;;;10.20;5.50;;;;;;;;;;5073855;28;20189;-83
2022/03/08 09:29:56;;;;;;;56.10;23.07;;;;;;;;;;5056046;28;20280;-84
2022/03/08 09:32:22;;;;;;;19.30;8.57;;;;;;;;;;5056073;28;20238;-83
2022/03/08 09:34:48;;;;;;;14.97;7.00;;;;;;;;;;5074494;28;20189;-84
2022/03/08 09:37:14;;;;;;;43.97;15.30;;;;;;;;;;5039502;28;20184;-84
2022/03/08 09:39:40;;;;;;;17.03;6.03;;;;;;;;;;5073987;28;20239;-84
2022/03/08 09:42:07;;;;;;;20.30;8.20;;;-0.70;99.90;;;;;;5055963;28;20635;-83
2022/03/08 09:44:33;;;;;;;17.50;7.40;;;;;;;;;;5073762;28;20210;-83
2022/03/08 09:46:59;;;;;;;13.93;7.07;;;;;;;;;;5040004;28;20534;-84
2022/03/08 09:49:25;;;;;;;8.27;5.83;;;;;;;;;;5074441;28;20179;-83
2022/03/08 09:51:52;;;;;;;12.40;6.57;;;0.00;99.90;;;;;;5056204;28;20209;-82
2022/03/08 09:54:18;;;;;;;19.20;8.33;;;;;;;;;;5040591;28;20335;-85
2022/03/08 09:56:45;;;;;;;16.27;7.33;;;;;;;;;;5039544;28;20184;-84
2022/03/08 09:59:15;;;;;;;19.57;8.50;;;0.00;99.90;;;;;;5073561;28;20688;-83
2022/03/08 10:01:41;;;;;;;18.03;9.13;;;;;;;;;;5073665;28;20175;-83
2022/03/08 10:04:07;;;;;;;18.30;8.47;;;;;;;;;;5073567;28;20252;-83
2022/03/08 10:06:41;;;;;;;17.67;9.47;;;0.00;99.90;;;;;;5055413;28;20520;-85
2022/03/08 10:09:16;;;;;;;36.63;15.97;;;-0.10;99.90;;;;;;5055676;28;20182;-83
2022/03/08 10:11:42;;;;;;;26.87;11.13;;;;;;;;;;5073836;28;20182;-83
2022/03/08 10:14:13;;;;;;;20.50;10.33;;;0.00;99.90;;;;;;5055975;28;20653;-83
2022/03/08 10:16:43;;;;;;;16.00;8.57;;;;;;;;;;5074445;28;20177;-84
2022/03/08 10:19:10;;;;;;;38.00;14.43;;;0.10;99.90;;;;;;5039513;28;20677;-83
2022/03/08 10:21:45;;;;;;;71.87;28.60;;;0.10;99.90;;;;;;5073524;28;20233;-83
2022/03/08 10:24:22;;;;;;;56.80;24.47;;;0.20;99.90;;;;;;5056112;28;20231;-83
2022/03/08 10:26:57;;;;;;;14.70;8.43;;;0.20;99.90;;;;;;5075769;28;20193;-86
2022/03/08 10:29:28;;;;;;;14.77;9.30;;;0.20;99.90;;;;;;5055131;28;20184;-85
2022/03/08 10:32:18;;;;;;;13.20;8.43;;;-0.50;99.90;;;;;;5073319;28;20313;-85
2022/03/08 10:34:46;;;;;;;22.37;11.73;;;0.20;99.90;;;;;;5055428;28;20178;-85
2022/03/08 10:37:20;;;;;;;22.13;12.83;;;0.30;99.90;;;;;;5055584;28;20210;-83
2022/03/08 10:40:05;;;;;;;26.70;11.30;;;0.60;99.90;;;;;;5073537;28;20162;-84
2022/03/08 10:42:36;;;;;;;17.37;10.07;;;0.20;99.90;;;;;;5076494;28;20211;-84
2022/03/08 10:45:11;;;;;;;17.30;10.50;;;-0.60;99.90;;;;;;5058229;28;20181;-84
2022/03/08 10:47:44;;;;;;;13.73;8.00;;;0.70;99.90;;;;;;5055569;28;20237;-83
2022/03/08 10:50:11;;;;;;;14.33;7.73;;;0.30;99.90;;;;;;5078918;28;20265;-83
2022/03/08 10:52:39;;;;;;;18.50;9.37;;;0.20;99.90;;;;;;5038794;28;20183;-84
2022/03/08 10:55:23;;;;;;;20.53;13.53;;;0.20;99.90;;;;;;5055381;28;20232;-83
2022/03/08 10:58:01;;;;;;;19.17;12.43;;;0.30;99.90;;;;;;5073279;28;20160;-84
2022/03/08 11:00:31;;;;;;;18.40;10.43;;;0.20;99.90;;;;;;5072965;28;20165;-83
2022/03/08 11:02:57;;;;;;;24.20;13.57;;;;;;;;;;5055130;28;20204;-83
2022/03/08 11:05:26;;;;;;;21.17;12.07;;;0.30;99.90;;;;;;5054789;28;20576;-85
2022/03/08 11:07:53;;;;;;;23.00;11.57;;;;;;;;;;5055231;28;20308;-84
2022/03/08 11:10:19;;;;;;;20.40;9.23;;;0.40;99.90;;;;;;5054943;28;20171;-85
2022/03/08 11:12:46;;;;;;;20.87;11.00;;;;;;;;;;5073005;28;20185;-85
2022/03/08 11:15:13;;;;;;;19.10;10.40;;;0.40;99.90;;;;;;5056166;28;20700;-83
2022/03/08 11:17:45;;;;;;;21.00;11.73;;;0.30;99.90;;;;;;5057090;28;20182;-84
2022/03/08 11:20:12;;;;;;;20.27;11.33;;;0.30;99.90;;;;;;5054988;28;20251;-82
2022/03/08 11:22:39;;;;;;;16.50;9.30;;;0.30;99.90;;;;;;5054496;28;20250;-83
2022/03/08 11:25:09;;;;;;;19.27;10.37;;;0.40;99.90;;;;;;5054744;28;20175;-83
2022/03/08 11:27:38;;;;;;;22.30;11.73;;;0.40;99.90;;;;;;5072662;28;20174;-85
2022/03/08 11:30:05;;;;;;;20.20;11.83;;;0.20;99.90;;;;;;5072706;28;20183;-84
2022/03/08 11:32:34;;;;;;;15.80;8.43;;;0.50;99.90;;;;;;5054563;28;20287;-85
2022/03/08 11:35:09;;;;;;;17.93;10.30;;;0.40;99.90;;;;;;5055421;28;20289;-84
2022/03/08 11:37:39;;;;;;;18.37;10.23;;;0.50;99.90;;;;;;5073384;28;20162;-84
2022/03/08 11:40:12;;;;;;;24.50;10.47;;;0.60;99.90;;;;;;5056297;28;20175;-84
2022/03/08 11:42:44;;;;;;;27.70;10.90;;;0.50;99.90;;;;;;5078294;28;20212;-84
2022/03/08 11:45:12;;;;;;;20.53;10.63;;;0.50;99.90;;;;;;5087892;28;20174;-84
2022/03/08 11:47:38;;;;;;;26.20;11.67;;;;;;;;;;5088006;28;20612;-85
2022/03/08 11:50:06;;;;;;;16.47;10.03;;;0.50;99.90;;;;;;5077487;28;20175;-85
2022/03/08 11:52:35;;;;;;;23.97;11.90;;;0.60;99.90;;;;;;5059221;28;20584;-84
2022/03/08 11:55:06;;;;;;;19.50;10.27;;;0.60;99.90;;;;;;5058200;28;20187;-84
2022/03/08 11:57:46;;;;;;;22.77;13.40;;;0.70;99.90;;;;;;5075897;28;20171;-84
2022/03/08 12:00:43;;;;;;;19.70;10.83;;;0.70;99.90;;;;;;5058163;28;20190;-83
2022/03/08 12:03:38;;;;;;;19.30;11.03;;;0.60;99.90;;;;;;5058038;28;20669;-84
2022/03/08 12:06:09;;;;;;;19.90;10.33;;;0.60;99.90;;;;;;5076130;28;20171;-84
2022/03/08 12:08:35;;;;;;;29.00;14.73;;;;;;;;;;5058026;28;20189;-83
2022/03/08 12:11:29;;;;;;;33.37;15.40;;;0.80;99.90;;;;;;5057415;28;20316;-83
2022/03/08 12:14:16;;;;;;;29.03;13.50;;;0.60;99.90;;;;;;5076236;28;20202;-84
2022/03/08 12:16:45;;;;;;;22.23;11.97;;;0.50;99.90;;;;;;5074573;28;20175;-83
2022/03/08 12:19:12;;;;;;;18.93;11.53;;;0.50;99.90;;;;;;5076060;28;20185;-82
2022/03/08 12:21:45;;;;;;;15.00;10.47;;;0.10;99.90;;;;;;5057608;28;20179;-84
2022/03/08 12:24:16;;;;;;;20.10;13.20;;;0.40;99.90;;;;;;5057759;28;20206;-85
2022/03/08 12:26:48;;;;;;;19.33;12.27;;;0.70;99.90;;;;;;5057611;28;20282;-84
2022/03/08 12:29:36;;;;;;;19.53;11.80;;;0.30;99.90;;;;;;5057108;28;20199;-84
2022/03/08 12:32:05;;;;;;;19.87;10.70;;;;;;;;;;5057202;28;20644;-85
2022/03/08 12:34:39;;;;;;;24.57;12.23;;;0.40;99.90;;;;;;5057412;28;20228;-85
2022/03/08 12:37:05;;;;;;;25.37;13.00;;;;;;;;;;5057454;28;20181;-84
2022/03/08 12:39:50;;;;;;;21.13;11.17;;;0.30;99.90;;;;;;5057309;28;20198;-84
2022/03/08 12:42:37;;;;;;;31.90;14.20;;;0.50;99.90;;;;;;5072435;28;20667;-84
2022/03/08 12:45:09;;;;;;;23.97;14.23;;;0.50;99.90;;;;;;5069714;28;20204;-85
2022/03/08 12:47:45;;;;;;;25.10;12.33;;;0.50;99.90;;;;;;5056943;28;20228;-85
2022/03/08 12:50:16;;;;;;;27.60;13.60;;;0.40;99.90;;;;;;5079448;28;20559;-82
2022/03/08 12:52:48;;;;;;;22.60;12.50;;;0.60;99.90;;;;;;5056565;28;20183;-84
2022/03/08 12:55:17;;;;;;;31.57;15.80;;;0.50;99.90;;;;;;5074841;28;20213;-83
2022/03/08 12:57:47;;;;;;;27.60;15.17;;;0.50;99.90;;;;;;5056847;28;20172;-84
2022/03/08 13:00:44;;;;;;;19.00;11.93;;;0.70;99.90;;;;;;5064127;28;20175;-83
2022/03/08 13:03:19;;;;;;;38.47;19.63;;;0.50;99.90;;;;;;5061705;28;20226;-84
2022/03/08 13:05:47;;;;;;;23.37;12.30;;;0.50;99.90;;;;;;5056815;28;20181;-85
2022/03/08 13:08:16;;;;;;;34.27;15.87;;;0.50;99.90;;;;;;5057288;28;20182;-84
2022/03/08 13:10:54;;;;;;;27.17;13.00;;;0.70;99.90;;;;;;5074630;28;20184;-85
2022/03/08 13:13:20;;;;;;;20.93;10.90;;;0.50;99.90;;;;;;5056402;28;20202;-85
2022/03/08 13:15:48;;;;;;;18.00;11.90;;;0.60;99.90;;;;;;5039234;28;20187;-85
2022/03/08 13:18:21;;;;;;;29.70;14.20;;;0.60;99.90;;;;;;5042319;28;20186;-84
2022/03/08 13:20:48;;;;;;;31.47;14.53;;;0.60;99.90;;;;;;5055973;28;20655;-84
2022/03/08 13:23:21;;;;;;;23.87;12.60;;;0.60;99.90;;;;;;5073958;28;20240;-84
2022/03/08 13:25:48;;;;;;;20.27;11.50;;;0.60;99.90;;;;;;5074233;28;20179;-84
2022/03/08 13:28:14;;;;;;;20.47;10.53;;;;;;;;;;5055747;28;20210;-84
2022/03/08 13:30:50;;;;;;;16.83;10.67;;;0.70;99.90;;;;;;5056166;28;20609;-84
2022/03/08 13:33:25;;;;;;;19.23;12.13;;;0.50;99.90;;;;;;5053154;28;20197;-84
2022/03/08 13:36:06;;;;;;;19.50;10.87;;;0.40;99.90;;;;;;5061068;28;20226;-85
2022/03/08 13:38:35;;;;;;;18.50;11.90;;;0.60;99.90;;;;;;5059097;28;20174;-82
2022/03/08 13:41:20;;;;;;;21.13;12.67;;;0.60;99.90;;;;;;5055231;28;20185;-85
2022/03/08 13:43:56;;;;;;;33.17;18.17;;;0.80;99.90;;;;;;5038332;28;20267;-84
2022/03/08 13:46:29;;;;;;;27.43;16.70;;;0.60;99.90;;;;;;5073506;28;20241;-86
2022/03/08 13:49:07;;;;;;;23.33;14.13;;;0.30;99.90;;;;;;5074289;28;20186;-83